Time;durP1;ratioP1;P1;durP2;ratioP2;P2;SDS_P1;SDS_P2;PMS_P1;PMS_P2;Temp;Humidity;BMP_temperature;BMP_pressure;BME280_temperature;BME280_humidity;BME280_pressure;Samples;Min_cycle;Max_cycle;Signal;HPM_P1;HPM_P2
2020/12/11 00:00:14;;;;;;;51.60;30.63;;;4.00;99.90;;;;;;5081507;28;20598;-35
2020/12/11 00:02:41;;;;;;;48.00;28.17;;;3.90;99.90;;;;;;5074611;28;20218;-37
2020/12/11 00:05:08;;;;;;;49.23;28.43;;;3.90;99.90;;;;;;5072771;28;20217;-38
2020/12/11 00:07:36;;;;;;;51.93;31.27;;;3.90;99.90;;;;;;5070637;28;20289;-40
2020/12/11 00:10:04;;;;;;;55.93;32.67;;;3.90;99.90;;;;;;5071786;28;20218;-37
2020/12/11 00:12:31;;;;;;;44.73;28.70;;;4.00;99.90;;;;;;5071744;28;20214;-37
2020/12/11 00:14:58;;;;;;;49.47;29.10;;;3.90;99.90;;;;;;5071773;28;20244;-38
2020/12/11 00:17:26;;;;;;;55.53;30.33;;;3.90;99.90;;;;;;5071593;28;20255;-38
2020/12/11 00:19:53;;;;;;;51.93;29.30;;;4.00;99.90;;;;;;5071403;28;20573;-37
2020/12/11 00:22:21;;;;;;;51.47;29.57;;;4.00;99.90;;;;;;5071322;28;20727;-37
2020/12/11 00:24:47;;;;;;;41.37;27.63;;;4.00;99.90;;;;;;5071411;28;20222;-38
2020/12/11 00:27:14;;;;;;;41.03;26.43;;;4.00;99.90;;;;;;5070967;28;20198;-37
2020/12/11 00:29:41;;;;;;;38.50;25.73;;;4.00;99.90;;;;;;5071000;28;20230;-38
2020/12/11 00:32:08;;;;;;;45.73;26.00;;;4.00;99.90;;;;;;5070999;28;20229;-37
2020/12/11 00:34:35;;;;;;;44.90;27.60;;;4.00;99.90;;;;;;5071216;28;20199;-38
2020/12/11 00:37:02;;;;;;;43.80;26.87;;;4.00;99.90;;;;;;5070847;28;20639;-37
2020/12/11 00:39:30;;;;;;;37.07;25.33;;;4.00;99.90;;;;;;5074894;28;20583;-38
2020/12/11 00:41:56;;;;;;;43.03;27.87;;;4.00;99.90;;;;;;5074919;28;20309;-36
2020/12/11 00:44:23;;;;;;;46.47;28.63;;;4.00;99.90;;;;;;5075722;28;20268;-37
2020/12/11 00:46:50;;;;;;;42.07;26.57;;;4.00;99.90;;;;;;5073738;28;20262;-39
2020/12/11 00:49:17;;;;;;;41.37;28.60;;;4.00;99.90;;;;;;5073601;28;20605;-37
2020/12/11 00:51:44;;;;;;;37.63;23.77;;;4.00;99.90;;;;;;5073439;28;20214;-37
2020/12/11 00:54:11;;;;;;;37.23;22.67;;;4.00;99.90;;;;;;5075435;28;20213;-37
2020/12/11 00:56:39;;;;;;;31.02;21.42;;;4.10;99.90;;;;;;5074953;28;20699;-39
2020/12/11 00:59:06;;;;;;;32.30;20.83;;;4.10;99.90;;;;;;5074632;28;20285;-37
2020/12/11 01:01:36;;;;;;;36.70;21.50;;;4.10;99.90;;;;;;5074681;28;20578;-38
2020/12/11 01:04:03;;;;;;;33.47;21.60;;;4.10;99.90;;;;;;5074194;28;20695;-37
2020/12/11 01:06:30;;;;;;;32.70;21.97;;;4.10;99.90;;;;;;5074323;28;20703;-37
2020/12/11 01:08:56;;;;;;;32.83;20.50;;;4.10;99.90;;;;;;5073478;28;20305;-38
2020/12/11 01:11:24;;;;;;;36.03;22.63;;;4.20;99.90;;;;;;5074223;28;20656;-37
2020/12/11 01:13:51;;;;;;;41.67;24.63;;;4.20;99.90;;;;;;5073498;28;20199;-37
2020/12/11 01:16:18;;;;;;;32.33;21.87;;;4.20;99.90;;;;;;5073720;28;20252;-38
2020/12/11 01:18:44;;;;;;;35.07;21.50;;;4.20;99.90;;;;;;5073080;28;20295;-37
2020/12/11 01:21:11;;;;;;;32.80;21.30;;;4.20;99.90;;;;;;5073381;28;20219;-38
2020/12/11 01:23:37;;;;;;;31.30;20.37;;;4.20;99.90;;;;;;5073532;28;20222;-37
2020/12/11 01:26:06;;;;;;;33.00;22.90;;;4.20;99.90;;;;;;5074190;28;20243;-38
2020/12/11 01:28:33;;;;;;;37.50;22.60;;;4.10;99.90;;;;;;5073632;28;20236;-38
2020/12/11 01:31:00;;;;;;;36.47;21.63;;;4.10;99.90;;;;;;5070005;28;20226;-36
2020/12/11 01:33:27;;;;;;;38.10;23.13;;;3.90;99.90;;;;;;5054124;28;20208;-37
2020/12/11 01:35:53;;;;;;;38.97;24.00;;;4.00;99.90;;;;;;5053896;28;20712;-37
2020/12/11 01:38:20;;;;;;;33.13;22.93;;;3.90;99.90;;;;;;5053667;28;20290;-37
2020/12/11 01:40:46;;;;;;;38.00;21.27;;;3.80;99.90;;;;;;5054254;28;20730;-39
2020/12/11 01:43:13;;;;;;;30.93;20.80;;;3.90;99.90;;;;;;5054412;28;20354;-37
2020/12/11 01:45:40;;;;;;;39.53;22.53;;;3.80;99.90;;;;;;5071287;28;20624;-37
2020/12/11 01:48:08;;;;;;;35.37;21.70;;;3.80;99.90;;;;;;5073155;28;20207;-36
2020/12/11 01:50:34;;;;;;;36.95;22.70;;;3.90;99.90;;;;;;5073092;28;20279;-37
2020/12/11 01:53:01;;;;;;;33.97;21.83;;;3.90;99.90;;;;;;5073852;28;20198;-37
2020/12/11 01:55:27;;;;;;;30.87;19.93;;;4.00;99.90;;;;;;5079014;28;20198;-38
2020/12/11 01:57:59;;;;;;;33.50;20.97;;;4.00;99.90;;;;;;5073256;28;20209;-37
2020/12/11 02:00:26;;;;;;;32.70;21.90;;;4.00;99.90;;;;;;5073638;28;20202;-37
2020/12/11 02:03:03;;;;;;;34.97;22.00;;;4.00;99.90;;;;;;5073866;28;20210;-37
2020/12/11 02:05:30;;;;;;;30.93;20.70;;;3.70;99.90;;;;;;5077945;28;20210;-36
2020/12/11 02:07:58;;;;;;;34.10;22.93;;;3.60;99.90;;;;;;5073286;28;20606;-37
2020/12/11 02:10:24;;;;;;;32.47;20.37;;;3.50;99.90;;;;;;5073413;28;20223;-38
2020/12/11 02:12:51;;;;;;;34.17;22.57;;;3.50;99.90;;;;;;5073301;28;20195;-38
2020/12/11 02:15:18;;;;;;;33.90;21.90;;;3.50;99.90;;;;;;5069269;28;20744;-37
2020/12/11 02:17:44;;;;;;;37.20;22.20;;;3.50;99.90;;;;;;5070681;28;20203;-37
2020/12/11 02:20:11;;;;;;;36.13;22.40;;;3.50;99.90;;;;;;5074982;28;20654;-39
2020/12/11 02:22:41;;;;;;;31.73;22.10;;;3.50;99.90;;;;;;5070975;28;20214;-38
2020/12/11 02:25:08;;;;;;;30.93;19.80;;;3.50;99.90;;;;;;5072384;28;20206;-37
2020/12/11 02:27:35;;;;;;;33.10;20.97;;;3.50;99.90;;;;;;5072560;28;20195;-37
2020/12/11 02:30:02;;;;;;;32.17;20.10;;;3.50;99.90;;;;;;5072877;28;20246;-39
2020/12/11 02:32:29;;;;;;;31.50;20.40;;;3.50;99.90;;;;;;5072833;28;20735;-37
2020/12/11 02:34:55;;;;;;;33.13;20.97;;;3.50;99.90;;;;;;5073130;28;20308;-39
2020/12/11 02:37:22;;;;;;;36.67;23.37;;;3.50;99.90;;;;;;5072632;28;20614;-37
2020/12/11 02:39:50;;;;;;;34.37;21.07;;;3.50;99.90;;;;;;5072833;28;20198;-37
2020/12/11 02:42:17;;;;;;;33.03;21.50;;;3.60;99.90;;;;;;5072664;28;20301;-37
2020/12/11 02:44:43;;;;;;;29.50;20.37;;;3.70;99.90;;;;;;5072528;28;20202;-38
2020/12/11 02:47:14;;;;;;;27.43;20.33;;;3.80;99.90;;;;;;5072493;28;20221;-37
2020/12/11 02:49:40;;;;;;;33.30;20.80;;;3.80;99.90;;;;;;5072754;28;20309;-37
2020/12/11 02:52:07;;;;;;;30.10;21.87;;;3.80;99.90;;;;;;5068331;28;20304;-38
2020/12/11 02:54:33;;;;;;;32.40;22.37;;;3.70;99.90;;;;;;5068633;28;20411;-38
2020/12/11 02:57:01;;;;;;;30.53;22.10;;;3.70;99.90;;;;;;5072282;28;20212;-37
2020/12/11 02:59:27;;;;;;;33.30;22.17;;;3.80;99.90;;;;;;5072171;28;20196;-39
2020/12/11 03:01:54;;;;;;;29.07;20.10;;;3.70;99.90;;;;;;5072355;28;20318;-38
2020/12/11 03:04:20;;;;;;;31.20;21.47;;;3.50;99.90;;;;;;5072459;28;20309;-37
2020/12/11 03:06:47;;;;;;;31.13;22.70;;;3.50;99.90;;;;;;5072454;28;20677;-37
2020/12/11 03:09:13;;;;;;;28.33;20.43;;;3.50;99.90;;;;;;5072237;28;20218;-36
2020/12/11 03:11:40;;;;;;;27.13;19.60;;;3.50;99.90;;;;;;5071314;28;20439;-36
2020/12/11 03:14:07;;;;;;;34.23;22.90;;;3.40;99.90;;;;;;5071228;28;20202;-39
2020/12/11 03:16:34;;;;;;;32.23;24.13;;;3.40;99.90;;;;;;5072325;28;20199;-36
2020/12/11 03:19:00;;;;;;;34.93;22.00;;;3.40;99.90;;;;;;5072443;28;20403;-36
2020/12/11 03:21:26;;;;;;;34.10;23.60;;;3.40;99.90;;;;;;5072277;28;20213;-38
2020/12/11 03:23:53;;;;;;;32.20;24.13;;;3.60;99.90;;;;;;5071901;28;20229;-36
2020/12/11 03:26:19;;;;;;;33.57;23.13;;;3.40;99.90;;;;;;5076528;28;20209;-37
2020/12/11 03:28:47;;;;;;;32.20;22.80;;;3.40;99.90;;;;;;5079965;28;20243;-37
2020/12/11 03:31:16;;;;;;;31.57;23.47;;;3.40;99.90;;;;;;5080270;28;20229;-36
2020/12/11 03:33:42;;;;;;;32.13;22.83;;;3.30;99.90;;;;;;5081186;28;20222;-37
2020/12/11 03:36:09;;;;;;;35.33;22.73;;;3.30;99.90;;;;;;5082715;28;20201;-38
2020/12/11 03:38:35;;;;;;;31.37;21.47;;;3.20;99.90;;;;;;5077878;28;20230;-37
2020/12/11 03:41:02;;;;;;;36.00;24.80;;;3.20;99.90;;;;;;5078352;28;20316;-38
2020/12/11 03:43:28;;;;;;;31.17;21.97;;;3.40;99.90;;;;;;5078842;28;20246;-37
2020/12/11 03:45:55;;;;;;;31.13;22.90;;;3.30;99.90;;;;;;5082655;28;20182;-38
2020/12/11 03:48:22;;;;;;;31.60;22.80;;;3.30;99.90;;;;;;5086730;28;20293;-37
2020/12/11 03:50:49;;;;;;;33.37;20.83;;;3.30;99.90;;;;;;5079469;28;20222;-37
2020/12/11 03:53:15;;;;;;;34.67;23.00;;;3.40;99.90;;;;;;5080124;28;20648;-38
2020/12/11 03:55:42;;;;;;;31.63;23.07;;;3.50;99.90;;;;;;5081334;28;20273;-38
2020/12/11 03:58:08;;;;;;;30.87;21.83;;;3.60;99.90;;;;;;5080035;28;20530;-36
2020/12/11 04:00:35;;;;;;;30.00;22.60;;;3.60;99.90;;;;;;5081590;28;20264;-39
2020/12/11 04:03:01;;;;;;;31.50;22.57;;;3.60;99.90;;;;;;5081778;28;20200;-37
2020/12/11 04:05:29;;;;;;;34.50;23.27;;;3.70;99.90;;;;;;5080293;28;20301;-37
2020/12/11 04:07:55;;;;;;;29.60;23.33;;;3.70;99.90;;;;;;5081253;28;20205;-39
2020/12/11 04:10:21;;;;;;;32.07;21.90;;;3.60;99.90;;;;;;5081157;28;20211;-39
2020/12/11 04:12:48;;;;;;;34.00;25.00;;;3.60;99.90;;;;;;5079340;28;20202;-37
2020/12/11 04:15:15;;;;;;;33.23;24.10;;;3.60;99.90;;;;;;5077183;28;20203;-36
2020/12/11 04:17:41;;;;;;;31.43;23.03;;;3.50;99.90;;;;;;5077035;28;20281;-37
2020/12/11 04:20:08;;;;;;;33.20;23.63;;;3.40;99.90;;;;;;5077825;28;20554;-36
2020/12/11 04:22:35;;;;;;;31.43;23.13;;;3.50;99.90;;;;;;5081771;28;20213;-39
2020/12/11 04:25:01;;;;;;;32.73;22.17;;;3.50;99.90;;;;;;5082105;28;20248;-38
2020/12/11 04:27:28;;;;;;;31.50;22.73;;;3.60;99.90;;;;;;5082736;28;20544;-37
2020/12/11 04:29:55;;;;;;;30.53;22.63;;;3.60;99.90;;;;;;5079008;28;20215;-39
2020/12/11 04:32:21;;;;;;;31.73;22.93;;;3.70;99.90;;;;;;5077486;28;20222;-37
2020/12/11 04:34:48;;;;;;;25.77;19.23;;;3.70;99.90;;;;;;5080515;28;20205;-37
2020/12/11 04:37:15;;;;;;;28.73;22.07;;;3.70;99.90;;;;;;5077338;28;20229;-37
2020/12/11 04:39:43;;;;;;;30.27;21.27;;;3.80;99.90;;;;;;5077845;28;20598;-38
2020/12/11 04:42:12;;;;;;;27.37;20.37;;;3.80;99.90;;;;;;5067194;28;20268;-37
2020/12/11 04:44:39;;;;;;;27.43;20.40;;;3.80;99.90;;;;;;5061096;28;20568;-37
2020/12/11 04:47:06;;;;;;;26.37;19.03;;;3.80;99.90;;;;;;5056484;28;20235;-38
2020/12/11 04:49:35;;;;;;;26.73;19.20;;;4.00;99.90;;;;;;5050801;28;20341;-38
2020/12/11 04:52:05;;;;;;;25.80;19.57;;;4.10;99.90;;;;;;5050960;28;20305;-37
2020/12/11 04:54:37;;;;;;;21.10;17.50;;;4.10;99.90;;;;;;5061492;28;20290;-39
2020/12/11 04:57:08;;;;;;;23.33;17.17;;;4.10;99.90;;;;;;5078677;28;20567;-38
2020/12/11 04:59:35;;;;;;;26.10;18.70;;;4.00;99.90;;;;;;5080838;28;20251;-37
2020/12/11 05:02:10;;;;;;;20.58;16.83;;;3.90;99.90;;;;;;5081591;28;20217;-37
2020/12/11 05:04:37;;;;;;;21.27;17.07;;;4.00;99.90;;;;;;5080077;22;20707;-38
2020/12/11 05:07:04;;;;;;;24.57;18.27;;;4.00;99.90;;;;;;5048391;28;20207;-38
2020/12/11 05:09:31;;;;;;;20.60;17.63;;;4.00;99.90;;;;;;5039941;28;20772;-38
2020/12/11 05:11:57;;;;;;;20.10;16.03;;;3.90;99.90;;;;;;5036606;28;20633;-38
2020/12/11 05:14:27;;;;;;;19.27;16.60;;;3.80;99.90;;;;;;5028293;28;20231;-38
2020/12/11 05:17:01;;;;;;;20.03;15.70;;;3.90;99.90;;;;;;5027763;28;20223;-38
2020/12/11 05:19:29;;;;;;;19.60;16.43;;;3.80;99.90;;;;;;5028164;28;20282;-38
2020/12/11 05:22:08;;;;;;;19.47;15.97;;;3.80;99.90;;;;;;5023904;28;20764;-38
2020/12/11 05:24:42;;;;;;;19.27;17.10;;;3.80;99.90;;;;;;5031044;28;20198;-38
2020/12/11 05:27:34;;;;;;;18.27;15.13;;;3.80;99.90;;;;;;5031824;28;20215;-38
2020/12/11 05:30:20;;;;;;;19.87;15.97;;;3.70;99.90;;;;;;5026284;28;20584;-38
2020/12/11 05:32:48;;;;;;;20.80;16.80;;;3.70;99.90;;;;;;5014387;28;20299;-38
2020/12/11 05:35:34;;;;;;;17.47;15.57;;;3.80;99.90;;;;;;5014374;28;20215;-38
2020/12/11 05:38:03;;;;;;;19.83;16.77;;;3.70;99.90;;;;;;5013932;28;20299;-38
2020/12/11 05:40:33;;;;;;;21.50;17.60;;;3.70;99.90;;;;;;5014061;28;20197;-38
2020/12/11 05:43:08;;;;;;;17.53;15.40;;;3.60;99.90;;;;;;5013757;28;20208;-38
2020/12/11 05:45:37;;;;;;;16.90;14.87;;;3.60;99.90;;;;;;5017587;28;20739;-38
2020/12/11 05:48:05;;;;;;;18.33;14.77;;;3.50;99.90;;;;;;5013927;28;20203;-38
2020/12/11 05:50:31;;;;;;;17.67;15.03;;;3.50;99.90;;;;;;5013400;28;20315;-38
2020/12/11 05:52:58;;;;;;;17.80;14.43;;;3.40;99.90;;;;;;5013464;28;20223;-38
2020/12/11 05:55:24;;;;;;;16.97;14.87;;;3.50;99.90;;;;;;5013391;28;20295;-38
2020/12/11 05:57:54;;;;;;;16.10;12.60;;;3.40;99.90;;;;;;5013052;28;20300;-38
2020/12/11 06:00:21;;;;;;;13.87;12.00;;;3.30;99.90;;;;;;5012939;28;20199;-38
2020/12/11 06:02:50;;;;;;;18.33;14.63;;;3.30;99.90;;;;;;5013318;28;20218;-38
2020/12/11 06:05:18;;;;;;;16.33;13.83;;;3.30;99.90;;;;;;5013285;28;20212;-38
2020/12/11 06:07:46;;;;;;;17.27;13.53;;;3.30;99.90;;;;;;5012794;28;20196;-38
2020/12/11 06:10:14;;;;;;;13.93;12.53;;;3.30;99.90;;;;;;5012790;28;20594;-38
2020/12/11 06:12:41;;;;;;;15.90;13.53;;;3.50;99.90;;;;;;5015956;28;20611;-39
2020/12/11 06:15:27;;;;;;;14.67;12.67;;;3.50;99.90;;;;;;5013292;28;20630;-38
2020/12/11 06:17:59;;;;;;;20.33;15.77;;;3.60;99.90;;;;;;5012863;28;20208;-38
2020/12/11 06:20:28;;;;;;;14.70;12.43;;;3.70;99.90;;;;;;5012742;28;20284;-38
2020/12/11 06:22:56;;;;;;;15.43;13.93;;;3.60;99.90;;;;;;5015136;28;20312;-38
2020/12/11 06:25:27;;;;;;;16.03;14.30;;;3.60;99.90;;;;;;5012899;28;20208;-38
2020/12/11 06:27:56;;;;;;;18.80;13.97;;;3.60;99.90;;;;;;5012867;28;20207;-38
2020/12/11 06:30:24;;;;;;;15.50;13.87;;;3.60;99.90;;;;;;5021414;28;20660;-38
2020/12/11 06:32:51;;;;;;;18.93;14.57;;;3.70;99.90;;;;;;5030787;28;20211;-38
2020/12/11 06:35:19;;;;;;;17.57;14.40;;;3.70;99.90;;;;;;5032334;28;20688;-38
2020/12/11 06:37:46;;;;;;;16.30;14.57;;;3.70;99.90;;;;;;5019455;28;20200;-38
2020/12/11 06:40:12;;;;;;;17.40;14.27;;;3.60;99.90;;;;;;5013156;28;20259;-38
2020/12/11 06:42:41;;;;;;;17.60;14.50;;;3.60;99.90;;;;;;5012864;28;20220;-38
2020/12/11 06:45:16;;;;;;;18.63;14.43;;;3.70;99.90;;;;;;5012930;28;20656;-38
2020/12/11 06:47:51;;;;;;;20.00;14.53;;;3.70;99.90;;;;;;5012804;28;20269;-38
2020/12/11 06:50:19;;;;;;;16.00;13.57;;;3.70;99.90;;;;;;5018427;28;20306;-38
2020/12/11 06:52:46;;;;;;;15.27;13.23;;;3.50;99.90;;;;;;5032203;28;20231;-38
2020/12/11 06:55:13;;;;;;;19.63;15.97;;;3.50;99.90;;;;;;5031006;28;20220;-38
2020/12/11 06:57:48;;;;;;;17.77;14.50;;;3.50;99.90;;;;;;5031936;28;20258;-38
2020/12/11 07:00:32;;;;;;;16.77;14.83;;;3.50;99.90;;;;;;5032069;28;20267;-38
2020/12/11 07:03:27;;;;;;;19.50;14.90;;;3.60;99.90;;;;;;5032119;28;20210;-38
2020/12/11 07:06:02;;;;;;;16.43;14.10;;;3.60;99.90;;;;;;5031881;28;20235;-38
2020/12/11 07:08:29;;;;;;;20.00;14.80;;;3.50;99.90;;;;;;5031779;28;20225;-38
2020/12/11 07:11:06;;;;;;;19.93;14.80;;;3.60;99.90;;;;;;5031359;28;20262;-38
2020/12/11 07:13:32;;;;;;;16.00;14.40;;;3.70;99.90;;;;;;5031478;28;20622;-38
2020/12/11 07:16:00;;;;;;;21.15;15.98;;;3.80;99.90;;;;;;5031837;28;20196;-38
2020/12/11 07:18:27;;;;;;;19.83;15.47;;;3.80;99.90;;;;;;5031339;28;20204;-38
2020/12/11 07:20:56;;;;;;;17.57;15.37;;;3.70;99.90;;;;;;5031645;28;20239;-38
2020/12/11 07:23:24;;;;;;;17.40;14.90;;;3.70;99.90;;;;;;5031611;28;20200;-38
2020/12/11 07:25:52;;;;;;;18.60;14.50;;;3.70;99.90;;;;;;5031908;28;20188;-38
2020/12/11 07:28:18;;;;;;;17.03;14.60;;;3.80;99.90;;;;;;5031300;28;20210;-38
2020/12/11 07:30:46;;;;;;;17.00;14.23;;;3.70;99.90;;;;;;5031808;28;20227;-38
2020/12/11 07:33:13;;;;;;;18.57;15.00;;;3.80;99.90;;;;;;5032179;28;20297;-38
2020/12/11 07:35:44;;;;;;;16.33;12.80;;;3.70;99.90;;;;;;5011855;28;20644;-38
2020/12/11 07:38:11;;;;;;;15.27;12.53;;;3.80;99.90;;;;;;5011759;28;20208;-38
2020/12/11 07:40:38;;;;;;;14.23;11.83;;;3.80;99.90;;;;;;5011811;28;20212;-38
2020/12/11 07:43:08;;;;;;;13.60;12.10;;;3.80;99.90;;;;;;5012174;28;20242;-38
2020/12/11 07:45:36;;;;;;;14.55;11.90;;;3.80;99.90;;;;;;5011489;28;20302;-38
2020/12/11 07:48:04;;;;;;;14.67;13.10;;;3.80;99.90;;;;;;5010612;28;20308;-38
2020/12/11 07:50:31;;;;;;;15.17;12.97;;;3.90;99.90;;;;;;5011369;28;20219;-38
2020/12/11 07:52:59;;;;;;;15.80;12.70;;;3.80;99.90;;;;;;5014057;28;20201;-38
2020/12/11 07:55:28;;;;;;;15.53;12.43;;;3.80;99.90;;;;;;5012330;28;20570;-38
2020/12/11 07:57:57;;;;;;;16.30;14.03;;;3.80;99.90;;;;;;5011156;28;20227;-38
2020/12/11 08:00:24;;;;;;;16.13;13.43;;;3.90;99.90;;;;;;5011304;28;20192;-38
2020/12/11 08:03:04;;;;;;;14.73;12.83;;;3.90;99.90;;;;;;5011487;28;20219;-38
2020/12/11 08:05:31;;;;;;;17.07;13.03;;;3.90;99.90;;;;;;5011468;28;20303;-38
2020/12/11 08:07:58;;;;;;;14.87;12.60;;;3.90;99.90;;;;;;5010052;28;20442;-38
2020/12/11 08:10:34;;;;;;;15.43;11.60;;;4.00;99.90;;;;;;5010937;28;20223;-38
2020/12/11 08:13:15;;;;;;;13.60;11.73;;;4.00;99.90;;;;;;5011318;28;20184;-38
2020/12/11 08:15:43;;;;;;;14.90;13.10;;;4.00;99.90;;;;;;5011837;28;20713;-38
2020/12/11 08:18:11;;;;;;;18.20;14.37;;;4.00;99.90;;;;;;5010698;28;20197;-38
2020/12/11 08:20:48;;;;;;;15.33;13.40;;;4.00;99.90;;;;;;5010903;28;20200;-38
2020/12/11 08:23:23;;;;;;;14.97;13.10;;;4.00;99.90;;;;;;5011238;28;20280;-38
2020/12/11 08:26:09;;;;;;;14.40;12.25;;;3.90;99.90;;;;;;5011246;28;20196;-38
2020/12/11 08:28:38;;;;;;;13.93;12.33;;;4.00;99.90;;;;;;5011329;28;20542;-39
2020/12/11 08:31:25;;;;;;;17.17;12.43;;;4.10;99.90;;;;;;5011486;28;20248;-38
2020/12/11 08:34:01;;;;;;;13.17;11.77;;;4.10;99.90;;;;;;5011070;28;20638;-38
2020/12/11 08:36:30;;;;;;;15.90;13.50;;;4.10;99.90;;;;;;5011360;28;20755;-38
2020/12/11 08:39:11;;;;;;;19.17;14.20;;;4.20;99.90;;;;;;5013325;28;20227;-38
2020/12/11 08:41:41;;;;;;;14.40;12.73;;;4.20;99.90;;;;;;5027942;28;20245;-38
2020/12/11 08:44:18;;;;;;;14.10;12.47;;;4.10;99.90;;;;;;5030554;28;20548;-38
2020/12/11 08:46:56;;;;;;;14.23;11.83;;;4.30;99.90;;;;;;5030730;28;20293;-38
2020/12/11 08:49:41;;;;;;;14.37;12.87;;;4.20;99.90;;;;;;5029441;28;20207;-38
2020/12/11 08:52:08;;;;;;;12.98;10.73;;;4.20;99.90;;;;;;5031466;28;20258;-38
2020/12/11 08:54:34;;;;;;;13.63;11.53;;;4.20;99.90;;;;;;5031189;28;20375;-38
2020/12/11 08:57:00;;;;;;;15.37;12.63;;;4.20;99.90;;;;;;5031977;28;20291;-37
2020/12/11 08:59:28;;;;;;;15.63;13.63;;;4.40;99.90;;;;;;5035041;28;20297;-38
2020/12/11 09:01:54;;;;;;;17.23;13.40;;;4.20;99.90;;;;;;5035621;28;20216;-37
2020/12/11 09:04:21;;;;;;;16.57;13.67;;;4.20;99.90;;;;;;5035424;28;20206;-37
2020/12/11 09:06:47;;;;;;;15.60;13.17;;;4.30;99.90;;;;;;5033793;28;20239;-37
2020/12/11 09:09:14;;;;;;;15.53;13.63;;;4.30;99.90;;;;;;5031516;28;20224;-39
2020/12/11 09:11:40;;;;;;;17.67;14.07;;;4.40;99.90;;;;;;5034155;28;20222;-38
2020/12/11 09:14:07;;;;;;;14.63;12.27;;;4.40;99.90;;;;;;5035285;28;20204;-39
2020/12/11 09:16:35;;;;;;;18.50;13.82;;;4.40;99.90;;;;;;5033869;28;20196;-38
2020/12/11 09:19:01;;;;;;;16.63;13.20;;;4.40;99.90;;;;;;5015240;28;20203;-38
2020/12/11 09:21:28;;;;;;;20.13;15.87;;;4.30;99.90;;;;;;5014751;28;20255;-38
2020/12/11 09:23:55;;;;;;;16.83;13.17;;;4.40;99.90;;;;;;5014580;28;20601;-38
2020/12/11 09:26:22;;;;;;;17.67;12.87;;;4.40;99.90;;;;;;5014726;28;20581;-38
2020/12/11 09:28:54;;;;;;;18.40;13.10;;;4.40;99.90;;;;;;5014289;28;20303;-38
2020/12/11 09:31:21;;;;;;;15.70;12.70;;;4.40;99.90;;;;;;5020175;28;20702;-38
2020/12/11 09:33:49;;;;;;;16.47;13.87;;;4.40;99.90;;;;;;5033953;28;20214;-38
2020/12/11 09:36:15;;;;;;;15.90;13.13;;;4.50;99.90;;;;;;5033723;28;20200;-38
2020/12/11 09:38:42;;;;;;;16.20;14.13;;;4.40;99.90;;;;;;5033624;28;20211;-38
2020/12/11 09:41:12;;;;;;;15.77;13.17;;;4.40;99.90;;;;;;5036326;28;20212;-38
2020/12/11 09:44:07;;;;;;;14.87;12.83;;;4.50;99.90;;;;;;5034979;28;20294;-38
2020/12/11 09:46:41;;;;;;;15.00;13.40;;;4.50;99.90;;;;;;5031636;28;20661;-38
2020/12/11 09:49:10;;;;;;;18.43;14.13;;;4.50;99.90;;;;;;5034878;28;20199;-38
2020/12/11 09:51:50;;;;;;;18.97;14.27;;;4.50;99.90;;;;;;5033706;28;20278;-38
2020/12/11 09:54:21;;;;;;;14.93;12.60;;;4.40;99.90;;;;;;5034616;28;20617;-39
2020/12/11 09:56:47;;;;;;;19.13;14.90;;;4.50;99.90;;;;;;5033349;28;20287;-38
2020/12/11 09:59:16;;;;;;;17.37;13.17;;;4.50;99.90;;;;;;5033661;28;20203;-38
2020/12/11 10:01:52;;;;;;;22.10;15.30;;;4.50;99.90;;;;;;5034042;28;20302;-38
2020/12/11 10:04:20;;;;;;;19.43;15.00;;;4.60;99.90;;;;;;5034275;28;20211;-38
2020/12/11 10:06:47;;;;;;;18.30;13.20;;;4.70;99.90;;;;;;5033816;28;20606;-38
2020/12/11 10:09:13;;;;;;;17.40;13.80;;;4.80;99.90;;;;;;5033075;28;20207;-38
2020/12/11 10:11:40;;;;;;;18.70;15.07;;;4.80;99.90;;;;;;5032717;28;20300;-38
2020/12/11 10:14:22;;;;;;;18.60;13.30;;;4.80;99.90;;;;;;5033049;28;20204;-38
2020/12/11 10:16:51;;;;;;;17.47;12.90;;;4.80;99.90;;;;;;5013410;28;20568;-38
2020/12/11 10:19:18;;;;;;;17.50;13.60;;;5.00;99.90;;;;;;5013024;28;20197;-38
2020/12/11 10:21:47;;;;;;;17.37;13.57;;;4.90;99.90;;;;;;5013180;28;20216;-39
2020/12/11 10:24:14;;;;;;;17.13;14.53;;;4.90;99.90;;;;;;5013371;28;20203;-38
2020/12/11 10:26:40;;;;;;;19.77;15.10;;;4.90;99.90;;;;;;5012935;28;20263;-38
2020/12/11 10:29:07;;;;;;;20.57;13.37;;;4.90;99.90;;;;;;5013132;28;20215;-38
2020/12/11 10:31:33;;;;;;;17.57;13.63;;;4.90;99.90;;;;;;5012832;28;20220;-38
2020/12/11 10:34:00;;;;;;;20.30;15.10;;;5.00;99.90;;;;;;5012970;28;20262;-38
2020/12/11 10:36:31;;;;;;;18.93;13.97;;;5.00;99.90;;;;;;5012931;28;20205;-38
2020/12/11 10:38:59;;;;;;;19.90;14.00;;;5.00;99.90;;;;;;5012508;28;20200;-38
2020/12/11 10:41:27;;;;;;;20.97;15.90;;;5.00;99.90;;;;;;5013114;28;20221;-40
2020/12/11 10:43:54;;;;;;;22.80;15.53;;;4.90;99.90;;;;;;5012421;28;20307;-38
2020/12/11 10:46:21;;;;;;;24.03;16.40;;;5.00;99.90;;;;;;5011506;28;20298;-38
2020/12/11 10:48:47;;;;;;;21.50;16.13;;;4.90;99.90;;;;;;5012515;28;20208;-38
2020/12/11 10:51:15;;;;;;;21.13;15.07;;;5.00;99.90;;;;;;5012524;28;20228;-38
2020/12/11 10:53:43;;;;;;;18.73;13.97;;;5.10;99.90;;;;;;5012974;28;20216;-38
2020/12/11 10:56:12;;;;;;;20.23;14.23;;;5.10;99.90;;;;;;5013102;28;20200;-38
2020/12/11 10:58:39;;;;;;;18.57;14.37;;;5.10;99.90;;;;;;5012615;28;20203;-38
2020/12/11 11:01:07;;;;;;;22.60;16.00;;;5.10;99.90;;;;;;5019836;28;20250;-38
2020/12/11 11:03:34;;;;;;;22.53;14.93;;;5.10;99.90;;;;;;5030288;28;20229;-38
2020/12/11 11:06:03;;;;;;;18.97;13.40;;;5.10;99.90;;;;;;5028978;28;20240;-38
2020/12/11 11:08:40;;;;;;;19.47;14.77;;;5.10;99.90;;;;;;5030802;28;20759;-38
2020/12/11 11:11:07;;;;;;;19.20;14.87;;;5.10;99.90;;;;;;5019230;28;20235;-38
2020/12/11 11:13:42;;;;;;;19.47;13.50;;;5.10;99.90;;;;;;5019674;28;20227;-38
2020/12/11 11:16:08;;;;;;;21.33;14.83;;;5.10;99.90;;;;;;5015464;28;20211;-38
2020/12/11 11:18:40;;;;;;;18.00;13.73;;;5.20;99.90;;;;;;5012150;28;20271;-38
2020/12/11 11:24:12;;;;;;;21.20;14.27;;;5.40;99.90;;;;;;5031976;28;20222;-38
2020/12/11 11:26:44;;;;;;;17.80;13.90;;;5.50;99.90;;;;;;5031956;28;20210;-39
2020/12/11 11:29:12;;;;;;;17.23;13.47;;;5.50;99.90;;;;;;5031573;28;20742;-38
2020/12/11 11:31:38;;;;;;;17.40;14.13;;;5.50;99.90;;;;;;5031891;28;20322;-38
2020/12/11 11:34:05;;;;;;;20.37;14.53;;;5.50;99.90;;;;;;5031684;28;20199;-38
2020/12/11 11:36:32;;;;;;;18.80;14.00;;;5.50;99.90;;;;;;5031528;28;20275;-38
2020/12/11 11:38:59;;;;;;;20.63;13.50;;;5.50;99.90;;;;;;5030791;28;20207;-38
2020/12/11 11:46:54;;;;;;;21.23;13.10;;;5.40;99.90;;;;;;5010252;28;20207;-38
2020/12/11 11:49:25;;;;;;;20.80;12.25;;;5.20;99.90;;;;;;5029841;28;20701;-38
2020/12/11 11:51:57;;;;;;;20.97;14.43;;;5.30;99.90;;;;;;5028619;28;20229;-38
2020/12/11 11:54:24;;;;;;;20.00;15.33;;;5.30;99.90;;;;;;5030352;28;20200;-39
2020/12/11 11:56:50;;;;;;;19.00;14.07;;;5.30;99.90;;;;;;5030483;28;20203;-38
2020/12/11 11:59:17;;;;;;;20.73;15.17;;;5.30;99.90;;;;;;5030497;28;20246;-38
2020/12/11 12:01:43;;;;;;;22.70;14.32;;;5.30;99.90;;;;;;5033806;28;20216;-38
2020/12/11 12:04:11;;;;;;;21.77;15.80;;;5.30;99.90;;;;;;5031027;28;20258;-38
2020/12/11 12:06:38;;;;;;;20.77;14.50;;;5.30;99.90;;;;;;5031224;28;20230;-38
2020/12/11 12:09:04;;;;;;;19.47;14.50;;;5.30;99.90;;;;;;5030873;28;20235;-38
2020/12/11 12:11:31;;;;;;;22.07;15.00;;;5.30;99.90;;;;;;5030775;28;20242;-38
2020/12/11 12:13:59;;;;;;;21.63;14.67;;;5.40;99.90;;;;;;5031060;28;20220;-38
2020/12/11 12:16:26;;;;;;;21.80;15.03;;;5.50;99.90;;;;;;5026587;28;20204;-38
2020/12/11 12:18:56;;;;;;;23.20;17.17;;;5.50;99.90;;;;;;5028001;28;20207;-38
2020/12/11 12:21:31;;;;;;;22.27;15.23;;;5.40;99.90;;;;;;5028178;28;20219;-38
2020/12/11 12:27:21;;;;;;;21.57;15.40;;;5.40;99.90;;;;;;5029942;28;20667;-38
2020/12/11 12:29:54;;;;;;;16.73;13.30;;;5.30;99.90;;;;;;4968607;28;20312;-38
2020/12/11 12:32:24;;;;;;;21.37;14.90;;;5.40;99.90;;;;;;5006561;28;20264;-38
2020/12/11 12:34:52;;;;;;;20.93;14.63;;;5.40;99.90;;;;;;5024485;28;20189;-39
2020/12/11 12:37:31;;;;;;;19.60;13.57;;;5.40;99.90;;;;;;5030014;28;20208;-38
2020/12/11 12:40:16;;;;;;;23.93;15.57;;;5.40;99.90;;;;;;5031499;28;20207;-38
2020/12/11 12:43:00;;;;;;;21.10;16.03;;;5.30;99.90;;;;;;5028648;28;20314;-38
2020/12/11 12:45:27;;;;;;;20.77;16.53;;;5.40;99.90;;;;;;5032677;28;20195;-38
2020/12/11 12:47:54;;;;;;;19.13;15.10;;;5.30;99.90;;;;;;5031055;28;20196;-38
2020/12/11 12:50:21;;;;;;;24.00;15.40;;;5.40;99.90;;;;;;5031532;28;20275;-38
2020/12/11 12:52:49;;;;;;;22.67;14.93;;;5.40;99.90;;;;;;5031759;28;20251;-38
2020/12/11 12:55:17;;;;;;;23.20;16.13;;;5.50;99.90;;;;;;5031123;28;20208;-38